map of ARN home
ARN - Airport
Location
City:  Stockholm, Stockholms län, Sweden
Name:Arlanda
ICAO:ESSA
IATA:ARN

Details
Type:Airport (Aerodrome, Airfield)
Use:Public/Civil, International (customs port of entry)
Latitude:59°39'07"N (59.651944)
Longitude:17°55'07"E (17.918611)
Datum:other
Elevation:137 ft (42 m)
Variation:6.07°E (WMM2015 magnetic declination)
0.16° annual change
Runways:3
Longest:10830 × 148 ft (3301 × 45 m), paved

Time
Time Zone:UTC+1 (DST+2)
Local Time:

Weather
METAR:ESSA 232020Z 04008KT 9999 BKN047 03/02 Q1028 NOSIG
TAF:ESSA 231730Z 2318/2418 06006KT CAVOK PROB40 2323/2405 2000 BCFG

Related Locations
Nearby:
Farthest:CHT: 11181 mi / 17994 km
Waitangi [Tuuta], CIT, NZ

Find:

   beyond  
but within

Other Information
Maps:
NOTAMs:
Links:
Sources:

  
flag of Sweden   

Sectional Chart

Flight Planning
at skyvector.com

Satellite Image

Google Maps Satellite view

 

Copyright © 2004-2017 Karl L. Swartz. All rights reserved.
The Great Circle Mapper name and logo are trademarks of the Great Circle Mapper.
All other trademarks mentioned herein belong to their respective owners.
Please see credits for attibutions and further copyright information.

  Follow gcmap on Facebook Follow gcmap on Twitter Follow gcmap on Google+ GCmap on LinkedIn

hCard Microformat

Geo Microformat